createdAt,value
2023-02-19T00:28:26.447Z,36.48
2023-02-19T00:29:26.473Z,36.47
2023-02-19T00:30:26.550Z,36.46
2023-02-19T00:31:26.630Z,36.47
2023-02-19T00:32:26.565Z,36.48
2023-02-19T00:33:26.590Z,36.47
2023-02-19T00:34:26.621Z,36.48
2023-02-19T00:35:26.650Z,36.49
2023-02-19T00:36:26.671Z,36.49
2023-02-19T00:37:26.704Z,36.50
2023-02-19T00:38:26.740Z,36.49
2023-02-19T00:39:26.777Z,36.48
2023-02-19T00:40:26.800Z,36.48
2023-02-19T00:41:26.828Z,36.50
2023-02-19T00:42:26.855Z,36.49
2023-02-19T00:43:26.880Z,36.47
2023-02-19T00:44:26.911Z,36.48
2023-02-19T00:45:26.945Z,36.47
2023-02-19T00:46:27.021Z,36.48
2023-02-19T00:47:27.000Z,36.48
2023-02-19T00:48:27.023Z,36.46
2023-02-19T00:49:27.061Z,36.50
2023-02-19T00:50:27.085Z,36.49
2023-02-19T00:51:27.122Z,36.50
2023-02-19T00:52:27.159Z,36.51
2023-02-19T00:53:27.176Z,36.51
2023-02-19T00:54:27.233Z,36.52
2023-02-19T00:55:27.233Z,36.54
2023-02-19T00:56:27.266Z,36.50
2023-02-19T00:57:27.299Z,36.51
2023-02-19T00:58:27.329Z,36.49
2023-02-19T00:59:27.346Z,36.48
2023-02-19T01:00:27.377Z,36.49
2023-02-19T01:01:27.452Z,36.49
2023-02-19T01:02:27.442Z,36.47
2023-02-19T01:03:27.475Z,36.46
2023-02-19T01:04:27.511Z,36.48
2023-02-19T01:05:27.532Z,36.47
2023-02-19T01:06:27.558Z,36.48
2023-02-19T01:07:27.591Z,36.45
2023-02-19T01:08:27.624Z,36.46
2023-02-19T01:09:27.654Z,36.47
2023-02-19T01:10:27.690Z,36.49
2023-02-19T01:11:27.734Z,36.46
2023-02-19T01:12:27.738Z,36.47
2023-02-19T01:13:27.765Z,36.49
2023-02-19T01:14:27.798Z,36.49
2023-02-19T01:15:27.832Z,36.47
2023-02-19T01:16:27.945Z,36.47
2023-02-19T01:17:27.915Z,36.49
2023-02-19T01:18:27.915Z,36.47
2023-02-19T01:19:27.957Z,36.47
2023-02-19T01:20:27.979Z,36.45
2023-02-19T01:21:28.030Z,36.47
2023-02-19T01:22:28.060Z,36.47
2023-02-19T01:23:28.083Z,36.47
2023-02-19T01:24:28.110Z,36.47
2023-02-19T01:25:28.128Z,36.48
2023-02-19T01:26:28.162Z,36.46
2023-02-19T01:27:28.200Z,36.50
2023-02-19T01:28:28.230Z,36.48
2023-02-19T01:29:28.273Z,36.48
2023-02-19T01:30:28.312Z,36.49
2023-02-19T01:31:28.413Z,36.52
2023-02-19T01:32:28.371Z,36.49
2023-02-19T01:33:28.394Z,36.53
2023-02-19T01:34:28.427Z,36.50
2023-02-19T01:35:28.457Z,36.52
2023-02-19T01:36:28.525Z,36.50
2023-02-19T01:37:28.521Z,36.53
2023-02-19T01:38:28.550Z,36.54
2023-02-19T01:39:28.568Z,36.53
2023-02-19T01:40:28.594Z,36.53
2023-02-19T01:41:28.638Z,36.56
2023-02-19T01:42:28.644Z,36.56
2023-02-19T01:43:28.681Z,36.57
2023-02-19T01:44:29.408Z,36.58
2023-02-19T01:45:28.732Z,36.55
2023-02-19T01:46:28.806Z,36.59
2023-02-19T01:47:28.789Z,36.58
2023-02-19T01:48:28.824Z,36.55
2023-02-19T01:49:28.852Z,36.56
2023-02-19T01:50:28.879Z,36.58
2023-02-19T01:51:28.939Z,36.57
2023-02-19T01:52:28.937Z,36.54
2023-02-19T01:53:28.969Z,36.58
2023-02-19T01:54:29.004Z,36.58
2023-02-19T01:55:29.023Z,36.53
2023-02-19T01:56:29.060Z,36.52
2023-02-19T01:57:29.086Z,36.54
2023-02-19T01:58:29.113Z,36.59
2023-02-19T01:59:29.143Z,36.56
2023-02-19T02:00:29.215Z,36.56
2023-02-19T02:01:29.196Z,36.58
2023-02-19T02:02:29.237Z,36.59
2023-02-19T02:03:29.255Z,36.57
2023-02-19T02:04:29.295Z,36.57
2023-02-19T02:05:29.309Z,36.55
2023-02-19T02:06:29.336Z,36.58
2023-02-19T02:07:29.376Z,36.58
2023-02-19T02:08:29.408Z,36.57
2023-02-19T02:09:29.426Z,36.57
2023-02-19T02:10:29.450Z,36.56
2023-02-19T02:11:29.489Z,36.57
2023-02-19T02:12:29.518Z,36.57
2023-02-19T02:13:29.551Z,36.58
2023-02-19T02:14:29.589Z,36.57
2023-02-19T02:15:29.606Z,36.57
2023-02-19T02:16:29.724Z,36.58
2023-02-19T02:17:29.678Z,36.58
2023-02-19T02:18:29.702Z,36.55
2023-02-19T02:19:29.742Z,36.58
2023-02-19T02:20:29.774Z,36.58
2023-02-19T02:21:29.822Z,36.58
2023-02-19T02:22:29.837Z,36.55
2023-02-19T02:23:29.876Z,36.55
2023-02-19T02:24:29.897Z,36.56
2023-02-19T02:25:29.930Z,36.55
2023-02-19T02:26:29.971Z,36.57
2023-02-19T02:27:29.987Z,36.56
2023-02-19T02:28:30.026Z,36.55
2023-02-19T02:29:30.047Z,36.56
2023-02-19T02:30:30.194Z,36.56
2023-02-19T02:31:30.188Z,36.58
2023-02-19T02:32:30.123Z,36.56
2023-02-19T02:33:30.170Z,36.55
2023-02-19T02:34:30.185Z,36.56
2023-02-19T02:35:30.218Z,36.58
2023-02-19T02:36:30.243Z,36.59
2023-02-19T02:37:30.284Z,36.61
2023-02-19T02:38:30.302Z,36.60
2023-02-19T02:39:30.337Z,36.58
2023-02-19T02:40:30.367Z,36.60
2023-02-19T02:41:30.388Z,36.58
2023-02-19T02:42:30.435Z,36.61
2023-02-19T02:43:30.470Z,36.60
2023-02-19T02:44:30.497Z,36.60
2023-02-19T02:45:30.571Z,36.59
2023-02-19T02:46:30.563Z,36.61
2023-02-19T02:47:30.606Z,36.60
2023-02-19T02:48:30.621Z,36.59
2023-02-19T02:49:30.658Z,36.59
2023-02-19T02:50:30.692Z,36.61
2023-02-19T02:51:30.736Z,36.61
2023-02-19T02:52:30.777Z,36.62
2023-02-19T02:53:30.797Z,36.63
2023-02-19T02:54:30.824Z,36.62
2023-02-19T02:55:30.865Z,36.63
2023-02-19T02:56:30.882Z,36.62
2023-02-19T02:57:30.919Z,36.61
2023-02-19T02:58:30.961Z,36.61
2023-02-19T02:59:30.993Z,36.61
2023-02-19T03:00:31.028Z,36.62
2023-02-19T03:01:31.052Z,36.61
2023-02-19T03:02:31.174Z,36.62
2023-02-19T03:03:31.125Z,36.64
2023-02-19T03:04:31.157Z,36.62
2023-02-19T03:05:31.187Z,36.64
2023-02-19T03:06:31.219Z,36.63
2023-02-19T03:07:31.245Z,36.63
2023-02-19T03:08:31.273Z,36.61
2023-02-19T03:09:31.308Z,36.63
2023-02-19T03:10:31.353Z,36.60
2023-02-19T03:11:31.368Z,36.63
2023-02-19T03:12:31.414Z,36.61
2023-02-19T03:13:31.438Z,36.64
2023-02-19T03:14:31.462Z,36.62
2023-02-19T03:15:31.497Z,36.63
2023-02-19T03:16:31.567Z,36.63
2023-02-19T03:17:31.557Z,36.63
2023-02-19T03:18:31.593Z,36.64
2023-02-19T03:19:31.629Z,36.66
2023-02-19T03:20:31.671Z,36.64
2023-02-19T03:21:31.698Z,36.67
2023-02-19T03:22:31.726Z,36.68
2023-02-19T03:23:31.765Z,36.69
2023-02-19T03:24:31.795Z,36.66
2023-02-19T03:25:31.823Z,36.66
2023-02-19T03:26:31.867Z,36.69
2023-02-19T03:27:31.892Z,36.66
2023-02-19T03:28:31.935Z,36.65
2023-02-19T03:29:31.968Z,36.66
2023-02-19T03:30:32.057Z,36.68
2023-02-19T03:31:32.106Z,36.70
2023-02-19T03:32:32.060Z,36.68
2023-02-19T03:33:32.101Z,36.68
2023-02-19T03:34:32.142Z,36.69
2023-02-19T03:35:32.187Z,36.67
2023-02-19T03:36:32.225Z,36.68
2023-02-19T03:37:32.264Z,36.68
2023-02-19T03:38:32.284Z,36.66
2023-02-19T03:39:32.310Z,36.66
2023-02-19T03:40:32.358Z,36.67
2023-02-19T03:41:32.397Z,36.66
2023-02-19T03:42:32.440Z,36.68
2023-02-19T03:43:32.407Z,36.67
2023-02-19T03:44:32.413Z,36.67
2023-02-19T03:45:32.439Z,36.68
2023-02-19T03:46:32.357Z,36.66
2023-02-19T03:47:32.328Z,36.69
2023-02-19T03:48:32.328Z,36.66
2023-02-19T03:49:32.295Z,36.67
2023-02-19T03:50:32.281Z,36.67
2023-02-19T03:51:32.264Z,36.69
2023-02-19T03:52:32.270Z,36.68
2023-02-19T03:53:32.306Z,36.67
2023-02-19T03:54:32.328Z,36.68
2023-02-19T03:55:32.378Z,36.68
2023-02-19T03:56:32.415Z,36.68
2023-02-19T03:57:32.448Z,36.70
2023-02-19T03:58:32.487Z,36.71
2023-02-19T03:59:32.522Z,36.69
2023-02-19T04:00:32.562Z,36.67
2023-02-19T04:01:32.590Z,36.70
2023-02-19T04:02:32.656Z,36.67
2023-02-19T04:03:32.673Z,36.68
2023-02-19T06:16:37.852Z,36.98
2023-02-19T06:17:37.921Z,36.99
2023-02-19T06:18:37.959Z,37.01
2023-02-19T06:19:37.983Z,37.00
2023-02-19T06:20:38.034Z,37.01
2023-02-19T06:21:38.081Z,36.99
2023-02-19T06:22:38.106Z,37.03
2023-02-19T06:23:38.161Z,37.00
2023-02-19T06:24:38.201Z,37.02
2023-02-19T06:25:38.231Z,37.00
2023-02-19T06:26:38.284Z,37.02
2023-02-19T06:27:38.310Z,37.03
2023-02-19T06:28:38.365Z,37.03
2023-02-19T06:29:38.414Z,37.01
2023-02-19T06:30:38.437Z,36.97
2023-02-19T06:31:38.570Z,37.02
2023-02-19T06:32:38.536Z,37.02
2023-02-19T06:33:38.586Z,37.02
2023-02-19T06:34:38.624Z,37.02
2023-02-19T06:35:38.654Z,37.01
2023-02-19T06:36:38.698Z,37.04
2023-02-19T06:37:38.745Z,37.04
2023-02-19T06:38:38.801Z,37.03
2023-02-19T06:39:38.856Z,37.05
2023-02-19T06:40:38.896Z,37.04
2023-02-19T06:41:38.951Z,37.06
2023-02-19T06:42:38.994Z,37.06
2023-02-19T06:43:39.055Z,37.06
2023-02-19T06:44:39.090Z,37.09
2023-02-19T06:45:39.125Z,37.05
2023-02-19T06:46:39.302Z,37.07
2023-02-19T06:47:39.208Z,37.08
2023-02-19T06:48:39.257Z,37.09
2023-02-19T06:49:39.310Z,37.07
2023-02-19T06:50:39.351Z,37.08
2023-02-19T06:51:39.406Z,37.08
2023-02-19T06:52:39.440Z,37.08
2023-02-19T06:53:39.490Z,37.10
2023-02-19T06:54:39.533Z,37.10
2023-02-19T06:55:39.582Z,37.08
2023-02-19T06:56:39.635Z,37.10
2023-02-19T06:57:39.702Z,37.11
2023-02-19T06:58:39.754Z,37.11
2023-02-19T06:59:39.788Z,37.12
2023-02-19T07:00:39.892Z,37.10
2023-02-19T07:01:39.891Z,37.11
2023-02-19T07:02:39.939Z,37.11
2023-02-19T07:03:39.998Z,37.12
2023-02-19T07:04:40.053Z,37.12
2023-02-19T07:05:40.088Z,37.12
2023-02-19T07:06:40.151Z,37.13
2023-02-19T07:07:40.201Z,37.12
2023-02-19T07:08:40.247Z,37.13
2023-02-19T07:09:40.284Z,37.11
2023-02-19T07:10:40.339Z,37.11
2023-02-19T07:11:40.399Z,37.14
2023-02-19T07:12:40.430Z,37.15
2023-02-19T07:13:40.477Z,37.17
2023-02-19T07:14:40.520Z,37.17
2023-02-19T07:15:40.558Z,37.18
2023-02-19T07:16:40.622Z,37.18
2023-02-19T07:17:40.643Z,37.18
2023-02-19T07:18:40.703Z,37.17
2023-02-19T09:51:47.834Z,37.50
2023-02-19T09:52:47.880Z,37.52
2023-02-19T09:53:47.932Z,37.50
2023-02-19T09:54:47.974Z,37.52
2023-02-19T09:55:48.027Z,37.53
2023-02-19T09:56:48.061Z,37.52
2023-02-19T09:57:48.104Z,37.52
2023-02-19T09:58:48.150Z,37.53
2023-02-19T09:59:48.213Z,37.53
2023-02-19T10:00:48.258Z,37.56
2023-02-19T10:01:48.330Z,37.54
2023-02-19T10:02:48.362Z,37.55
2023-02-19T10:03:48.420Z,37.55
2023-02-19T10:04:48.493Z,37.53
2023-02-19T10:05:48.521Z,37.50
2023-02-19T10:06:48.574Z,37.51
2023-02-19T10:07:48.629Z,37.54
2023-02-19T10:08:48.670Z,37.53
2023-02-19T10:09:48.718Z,37.54
2023-02-19T10:10:48.780Z,37.54
2023-02-19T10:11:48.843Z,37.52
2023-02-19T10:12:48.867Z,37.51
2023-02-19T10:13:48.923Z,37.55
2023-02-19T10:14:48.970Z,37.52
2023-02-19T10:15:49.057Z,37.52
2023-02-19T10:16:49.073Z,37.51
2023-02-19T10:17:49.131Z,37.53
2023-02-19T10:18:49.152Z,37.53
2023-02-19T10:19:49.202Z,37.53
2023-02-19T10:20:49.235Z,37.52
2023-02-19T10:21:49.297Z,37.48
2023-02-19T10:22:49.346Z,37.52
2023-02-19T10:23:49.392Z,37.51
2023-02-19T10:24:49.431Z,37.52
2023-02-19T10:25:49.481Z,37.51
2023-02-19T10:26:49.555Z,37.53
2023-02-19T10:27:49.607Z,37.53
2023-02-19T10:28:49.643Z,37.56
2023-02-19T10:29:49.689Z,37.56
2023-02-19T10:30:49.795Z,37.55
2023-02-19T10:31:49.861Z,37.56
2023-02-19T10:32:49.826Z,37.58
2023-02-19T10:33:49.884Z,37.57
2023-02-19T10:34:49.931Z,37.57
2023-02-19T10:35:49.949Z,37.55
2023-02-19T10:36:50.005Z,37.56
2023-02-19T10:37:50.034Z,37.57
2023-02-19T10:38:50.084Z,37.58
2023-02-19T10:39:50.140Z,37.58
2023-02-19T10:40:50.181Z,37.58
2023-02-19T10:41:50.216Z,37.58
2023-02-19T10:42:50.281Z,37.58
2023-02-19T10:43:50.334Z,37.61
2023-02-19T10:44:50.350Z,37.60
2023-02-19T10:45:50.417Z,37.60
2023-02-19T10:46:50.454Z,37.59
2023-02-19T10:47:50.496Z,37.57
2023-02-19T10:48:50.535Z,37.55
2023-02-19T10:49:50.586Z,37.59
2023-02-19T10:50:50.630Z,37.58
2023-02-19T10:51:50.673Z,37.57
2023-02-19T10:52:50.739Z,37.61
2023-02-19T10:53:50.747Z,37.61
2023-02-19T10:54:50.800Z,37.62
2023-02-19T10:55:50.842Z,37.60
2023-02-19T10:56:50.924Z,37.61
2023-02-19T10:57:50.940Z,37.59
2023-02-19T10:58:50.985Z,37.56
2023-02-19T10:59:51.040Z,37.57
2023-02-19T13:44:58.731Z,37.41
2023-02-19T13:45:57.918Z,37.41
2023-02-19T13:46:57.883Z,37.45
2023-02-19T13:47:57.927Z,37.36
2023-02-19T13:48:57.941Z,37.36
2023-02-19T13:49:58.098Z,37.36
2023-02-19T13:50:58.015Z,37.39
2023-02-19T13:51:58.058Z,37.38
2023-02-19T13:52:58.082Z,37.39
2023-02-19T13:53:58.122Z,37.35
2023-02-19T13:54:58.165Z,37.37
2023-02-19T13:55:58.199Z,37.36
2023-02-19T13:56:58.255Z,37.34
2023-02-19T13:57:58.273Z,37.31
2023-02-19T13:58:58.309Z,37.34
2023-02-19T13:59:58.351Z,37.38
2023-02-19T14:00:58.390Z,37.41
2023-02-19T14:01:58.420Z,37.38
2023-02-19T14:02:58.462Z,37.35
2023-02-19T14:03:58.497Z,37.33
2023-02-19T14:04:58.471Z,37.34
2023-02-19T14:05:58.457Z,37.37
2023-02-19T14:06:58.450Z,37.33
2023-02-19T14:07:58.429Z,37.32
2023-02-19T14:08:58.415Z,37.35
2023-02-19T14:09:58.400Z,37.29
2023-02-19T14:10:58.396Z,37.32
2023-02-19T14:11:58.378Z,37.27
2023-02-19T14:12:58.355Z,37.30
2023-02-19T14:13:58.472Z,37.31
2023-02-19T14:14:58.389Z,37.32
2023-02-19T14:15:58.438Z,37.30
2023-02-19T14:16:58.469Z,37.29
2023-02-19T14:17:58.508Z,37.30
2023-02-19T14:18:58.557Z,37.31
2023-02-19T14:19:58.599Z,37.29
2023-02-19T14:20:58.634Z,37.32
2023-02-19T14:21:58.655Z,37.30
2023-02-19T14:22:58.702Z,37.33
2023-02-19T14:23:58.744Z,37.32
2023-02-19T14:24:58.782Z,37.27
2023-02-19T14:25:58.832Z,37.29
2023-02-19T14:26:58.862Z,37.25
2023-02-19T14:27:58.911Z,37.23
2023-02-19T14:28:58.936Z,37.24
2023-02-19T14:29:58.984Z,37.25
2023-02-19T14:30:59.062Z,37.25
2023-02-19T14:31:59.195Z,37.22
2023-02-19T14:33:10.117Z,37.24
2023-02-19T14:34:00.104Z,37.29
2023-02-19T14:34:59.089Z,37.25
2023-02-19T14:35:59.056Z,37.21
2023-02-19T14:37:01.070Z,37.21
2023-02-19T14:37:59.028Z,37.24
2023-02-19T14:38:59.017Z,37.20
2023-02-19T14:39:59.006Z,37.25
2023-02-19T14:40:59.000Z,37.28
2023-02-19T14:41:59.049Z,37.25
2023-02-19T14:43:01.072Z,37.27
2023-02-19T14:43:59.112Z,37.24
2023-02-19T14:44:59.156Z,37.22
2023-02-19T14:45:59.236Z,37.18
2023-02-19T14:46:59.245Z,37.22
2023-02-19T14:47:59.260Z,37.22
2023-02-19T14:48:59.305Z,37.26
2023-02-19T14:49:59.356Z,37.25
2023-02-19T14:50:59.406Z,37.22
2023-02-19T14:51:59.453Z,37.23
2023-02-19T14:52:59.488Z,37.19
2023-02-19T14:53:59.524Z,37.21
2023-02-19T14:54:59.566Z,37.22
2023-02-19T14:55:59.588Z,37.19
2023-02-19T14:56:59.630Z,37.20
2023-02-19T14:57:59.678Z,37.21
2023-02-19T14:58:59.723Z,37.16
2023-02-19T14:59:59.750Z,37.16
2023-02-19T15:00:59.789Z,37.14
2023-02-19T15:01:59.826Z,37.18
2023-02-19T15:02:59.884Z,37.19
2023-02-19T15:03:59.894Z,37.18
2023-02-19T15:04:59.995Z,37.18
2023-02-19T15:05:59.999Z,37.14
2023-02-19T15:07:00.021Z,37.14
2023-02-19T15:08:00.089Z,37.12
2023-02-19T15:09:00.125Z,37.17
2023-02-19T15:28:00.903Z,37.12
2023-02-19T15:29:00.927Z,37.16
2023-02-19T15:30:01.275Z,37.13
2023-02-19T15:31:01.028Z,37.10
2023-02-19T15:32:01.767Z,37.06
2023-02-19T15:33:01.069Z,37.05
2023-02-19T15:34:01.104Z,37.01
2023-02-19T15:35:01.161Z,36.99
2023-02-19T15:36:01.184Z,37.01
2023-02-19T15:37:01.229Z,37.03
2023-02-19T15:38:01.268Z,37.06
2023-02-19T15:39:01.329Z,37.08
2023-02-19T15:40:01.357Z,37.05
2023-02-19T15:41:01.390Z,37.03
2023-02-19T15:42:01.432Z,37.07
2023-02-19T15:43:01.480Z,37.03
2023-02-19T15:44:01.516Z,36.99
2023-02-19T15:45:01.557Z,36.98
2023-02-19T15:46:01.592Z,37.01
2023-02-19T15:47:01.627Z,37.04
2023-02-19T15:48:01.655Z,37.03
2023-02-19T15:49:01.707Z,37.01
2023-02-19T15:50:01.798Z,37.01
2023-02-19T15:51:01.759Z,37.05
2023-02-19T15:52:01.791Z,37.05
2023-02-19T15:53:01.839Z,37.06
2023-02-19T15:54:01.936Z,37.03
2023-02-19T15:55:01.922Z,37.04
2023-02-19T15:56:02.912Z,37.02
2023-02-19T15:57:01.892Z,37.02
2023-02-19T15:58:01.881Z,37.04
2023-02-19T15:59:01.862Z,37.06
2023-02-19T16:00:01.965Z,37.03
2023-02-19T16:01:01.830Z,37.03
2023-02-19T16:02:01.879Z,37.00
2023-02-19T16:03:01.829Z,37.02
2023-02-19T16:04:02.567Z,37.00
2023-02-19T16:05:01.781Z,37.03
2023-02-19T16:06:01.796Z,37.05
2023-02-19T16:07:01.829Z,37.05
2023-02-19T16:08:02.647Z,37.03
2023-02-19T16:09:01.907Z,36.96
2023-02-19T16:10:01.921Z,36.98
2023-02-19T16:11:01.982Z,36.98
2023-02-19T16:12:01.991Z,36.99
2023-02-19T16:13:02.016Z,36.97
2023-02-19T16:14:02.065Z,36.97
2023-02-19T16:15:02.099Z,36.98
2023-02-19T16:16:02.168Z,37.00
2023-02-19T16:17:02.186Z,36.99
2023-02-19T16:18:02.205Z,36.95
2023-02-19T16:19:02.294Z,36.96
2023-02-19T16:20:02.310Z,36.97
2023-02-19T16:21:02.322Z,36.97
2023-02-19T16:22:02.351Z,36.95
2023-02-19T16:23:02.392Z,36.95
2023-02-19T16:24:02.420Z,36.93
2023-02-19T16:25:03.174Z,37.02
2023-02-19T16:26:03.075Z,37.01
2023-02-19T16:27:02.514Z,36.96
2023-02-19T16:28:02.558Z,36.98
2023-02-19T16:29:03.075Z,36.94
2023-02-19T16:30:02.687Z,36.93
2023-02-19T16:31:02.668Z,36.93
2023-02-19T16:32:02.881Z,36.95
2023-02-19T16:33:02.743Z,36.93
2023-02-19T16:34:02.778Z,36.94
2023-02-19T16:35:02.844Z,36.93
2023-02-19T16:36:03.655Z,36.90
2023-02-19T16:37:02.872Z,36.96
2023-02-19T16:38:02.918Z,36.97
2023-02-19T16:39:02.947Z,36.92
2023-02-19T16:40:02.972Z,36.92
2023-02-19T16:41:03.010Z,36.90
2023-02-19T16:42:03.043Z,36.92
2023-02-19T16:43:03.086Z,36.92
2023-02-19T16:44:03.140Z,36.92
2023-02-19T16:45:03.179Z,36.90
2023-02-19T16:46:03.265Z,36.91
2023-02-19T16:47:03.243Z,36.89
2023-02-19T16:48:03.273Z,36.91
2023-02-19T16:49:03.315Z,36.88
2023-02-19T16:50:03.388Z,36.84
2023-02-19T16:51:03.421Z,36.86
2023-02-19T16:52:04.549Z,36.86
2023-02-19T16:53:03.499Z,36.88
2023-02-19T16:54:03.536Z,36.87
2023-02-19T16:55:03.567Z,36.88
2023-02-19T16:56:03.611Z,36.86
2023-02-19T16:57:03.650Z,36.84
2023-02-19T16:58:03.693Z,36.80
2023-02-19T16:59:03.725Z,36.77
2023-02-19T17:00:03.765Z,36.81
2023-02-19T17:01:03.881Z,36.80
2023-02-19T17:02:03.860Z,36.83
2023-02-19T17:03:03.888Z,36.83
2023-02-19T17:04:03.987Z,36.81
2023-02-19T17:05:03.961Z,36.78
2023-02-19T17:06:04.004Z,36.75
2023-02-19T17:07:04.034Z,36.79
2023-02-19T17:08:04.070Z,36.81
2023-02-19T17:09:04.109Z,36.79
2023-02-19T18:39:07.849Z,36.50
2023-02-19T18:40:07.869Z,36.52
2023-02-19T18:41:07.911Z,36.50
2023-02-19T18:42:07.977Z,36.52
2023-02-19T18:43:08.005Z,36.52
2023-02-19T18:44:08.046Z,36.53
2023-02-19T18:45:08.065Z,36.51
2023-02-19T18:46:08.147Z,36.49
2023-02-19T18:47:08.135Z,36.50
2023-02-19T18:48:08.183Z,36.50
2023-02-19T18:49:08.212Z,36.50
2023-02-19T18:50:08.257Z,36.50
2023-02-19T18:51:08.299Z,36.49
2023-02-19T18:52:08.324Z,36.51
2023-02-19T18:53:08.351Z,36.53
2023-02-19T18:54:08.378Z,36.51
2023-02-19T18:55:08.412Z,36.50
2023-02-19T18:56:08.461Z,36.51
2023-02-19T18:57:08.504Z,36.52
2023-02-19T18:58:08.562Z,36.51
2023-02-19T18:59:08.570Z,36.49
2023-02-19T19:00:08.611Z,36.49
2023-02-19T19:01:08.697Z,36.48
2023-02-19T19:02:08.689Z,36.48
2023-02-19T19:03:08.709Z,36.48
2023-02-19T19:04:08.773Z,36.50
2023-02-19T19:05:08.772Z,36.47
2023-02-19T19:06:08.813Z,36.48
2023-02-19T19:07:08.850Z,36.46
2023-02-19T19:08:08.874Z,36.46
2023-02-19T19:09:08.914Z,36.45
2023-02-19T19:10:08.956Z,36.46
2023-02-19T19:11:09.191Z,36.45
2023-02-19T19:12:09.074Z,36.45
2023-02-19T19:13:09.116Z,36.45
2023-02-19T19:14:09.135Z,36.50
2023-02-19T19:15:09.151Z,36.48
2023-02-19T19:16:09.219Z,36.47
2023-02-19T19:17:09.229Z,36.46
2023-02-19T19:18:09.266Z,36.48
2023-02-19T19:19:09.297Z,36.44
2023-02-19T19:20:09.346Z,36.48
2023-02-19T19:21:09.494Z,36.48
2023-02-19T19:22:09.400Z,36.47
2023-02-19T19:23:09.435Z,36.49
2023-02-19T19:24:09.467Z,36.47
2023-02-19T19:25:09.519Z,36.46
2023-02-19T19:26:09.803Z,36.46
2023-02-19T19:27:09.563Z,36.46
2023-02-19T19:28:09.606Z,36.45
2023-02-19T19:29:09.640Z,36.47
2023-02-19T19:30:09.719Z,36.44
2023-02-19T19:31:09.757Z,36.46
2023-02-19T19:32:10.870Z,36.43
2023-02-19T19:33:09.791Z,36.46
2023-02-19T19:34:09.826Z,36.48
2023-02-19T19:35:09.887Z,36.48
2023-02-19T19:36:09.905Z,36.44
2023-02-19T19:37:09.961Z,36.47
2023-02-19T19:38:09.975Z,36.44
2023-02-19T19:39:10.010Z,36.45
2023-02-19T19:40:10.054Z,36.46
2023-02-19T19:41:11.209Z,36.44
2023-02-19T19:42:10.025Z,36.42
2023-02-19T19:43:09.989Z,36.43
2023-02-19T19:44:09.981Z,36.43
2023-02-19T19:45:09.958Z,36.43
2023-02-19T19:46:09.950Z,36.44
2023-02-19T19:47:09.916Z,36.43
2023-02-19T19:48:09.907Z,36.43
2023-02-19T19:49:09.882Z,36.43
2023-02-19T19:50:09.868Z,36.41
2023-02-19T19:51:10.046Z,36.44
2023-02-19T19:52:09.897Z,36.44
2023-02-19T19:53:09.932Z,36.43
2023-02-19T19:54:09.980Z,36.41
2023-02-19T19:55:10.011Z,36.41
2023-02-19T19:56:10.064Z,36.41
2023-02-19T19:57:10.068Z,36.42
2023-02-19T19:58:10.110Z,36.43
2023-02-19T19:59:10.137Z,36.41
2023-02-19T20:00:10.182Z,36.43
2023-02-19T20:01:10.740Z,36.41
2023-02-19T20:02:10.261Z,36.41
2023-02-19T20:03:10.300Z,36.41
2023-02-19T20:04:10.330Z,36.38
2023-02-19T20:05:10.374Z,36.40
2023-02-19T20:06:10.421Z,36.39
2023-02-19T20:07:10.440Z,36.42
2023-02-19T20:08:10.471Z,36.41
2023-02-19T20:09:10.516Z,36.41
2023-02-19T20:10:10.532Z,36.38
2023-02-19T20:11:10.898Z,36.41
2023-02-19T20:12:10.609Z,36.38
2023-02-19T20:13:10.622Z,36.41
2023-02-19T20:14:10.664Z,36.40
2023-02-19T20:15:10.696Z,36.39
2023-02-19T20:16:10.763Z,36.41
2023-02-19T20:17:10.777Z,36.42
2023-02-19T20:18:10.820Z,36.41
2023-02-19T20:19:10.854Z,36.40
2023-02-19T20:20:10.879Z,36.39
2023-02-19T20:21:11.213Z,36.42
2023-02-19T20:22:10.976Z,36.42
2023-02-19T20:23:11.022Z,36.39
2023-02-19T20:24:12.636Z,36.39
2023-02-19T20:25:11.109Z,36.39
2023-02-19T20:26:11.175Z,36.39
2023-02-19T20:27:11.175Z,36.41
2023-02-19T20:28:11.218Z,36.39
2023-02-19T20:29:11.254Z,36.43
2023-02-19T20:30:11.583Z,36.42
2023-02-19T20:31:11.694Z,36.39
2023-02-19T20:32:11.465Z,36.42
2023-02-19T20:34:11.467Z,36.40
2023-02-19T20:35:11.501Z,36.39
2023-02-19T20:36:11.543Z,36.39
2023-02-19T20:37:11.548Z,36.40
2023-02-19T20:38:11.591Z,36.40
2023-02-19T20:39:11.625Z,36.39
2023-02-19T20:40:11.670Z,36.39
2023-02-19T20:41:12.129Z,36.39
2023-02-19T20:42:16.442Z,36.40
2023-02-19T20:43:12.734Z,36.38
2023-02-19T20:44:11.719Z,36.39
2023-02-19T20:45:11.700Z,36.38
2023-02-19T20:46:12.052Z,36.38
2023-02-19T20:47:11.689Z,36.37
2023-02-19T20:48:11.674Z,36.39
2023-02-19T20:49:11.661Z,36.37
2023-02-19T20:50:11.666Z,36.38
2023-02-19T20:51:11.676Z,36.37
2023-02-19T20:52:11.639Z,36.37
2023-02-19T20:53:11.648Z,36.36
2023-02-19T20:54:11.678Z,36.37
2023-02-19T20:55:11.722Z,36.38
2023-02-19T20:56:12.151Z,36.38
2023-02-19T20:57:11.799Z,36.36
2023-02-19T20:58:11.831Z,36.39
2023-02-19T20:59:11.879Z,36.36
2023-02-19T23:28:17.797Z,36.54
2023-02-19T23:29:17.853Z,36.54
2023-02-19T23:30:17.913Z,36.56
2023-02-19T23:31:18.018Z,36.52
2023-02-19T23:32:17.952Z,36.54
2023-02-19T23:33:17.992Z,36.55
2023-02-19T23:34:18.047Z,36.54
2023-02-19T23:35:18.088Z,36.54
2023-02-19T23:44:18.430Z,36.56
2023-02-19T23:45:18.466Z,36.55
2023-02-19T23:50:18.667Z,36.60
2023-02-19T23:51:18.710Z,36.62
2023-02-19T23:52:18.758Z,36.61
2023-02-19T23:53:18.796Z,36.61
2023-02-19T23:54:18.827Z,36.61
2023-02-19T23:55:18.879Z,36.61
2023-02-19T23:56:18.913Z,36.59
2023-02-19T23:57:18.958Z,36.59
2023-02-19T23:58:18.998Z,36.61
2023-02-19T23:59:19.045Z,36.60
